F/V Jimorhan — FGD5815 — position and weather

sailwx.info

Track history (hours):
 
Tides and Currents Weather Stations Pressure Air Temp Water Temp Dewpoint Dewpoint Depression Visibility Wind Speed Wind Dir Waves Ship Positions

F/V Jimorhan

Last reported at 2017-Nov-20 00:21 UTC. Time now 2017-Nov-21 17:44 UTC.
Position N 43°23' W 001°40'.

Length 19 m.

Type: Fishing. MMSI: 227573440.

Date/timePositionNaut miles runAvg speedWind from/ knotsBaromVisibWave heightAir tempDewpointWater temp
2017-Nov-20 00:21N 43°23' W 001°40'2 4.4
2017-Nov-20 00:00N 43°25' W 001°40'510.2
2017-Nov-19 23:30N 43°29' W 001°37'1510.0
2017-Nov-19 21:59N 43°43' W 001°27'3 5.4
2017-Nov-19 21:25N 43°46' W 001°26'0 0.1
2017-Nov-19 20:55N 43°46' W 001°26'5 6.1
2017-Nov-19 20:11N 43°50' W 001°26'0 1.1
2017-Nov-19 19:43N 43°51' W 001°25'1 6.1
2017-Nov-19 19:30N 43°52' W 001°25'2 3.1
2017-Nov-19 19:00N 43°53' W 001°25'1 1.0
2017-Nov-19 18:16N 43°54' W 001°25'1 0.4
2017-Nov-19 16:51N 43°55' W 001°25'0 0.8
2017-Nov-19 16:30N 43°55' W 001°25'1 1.6
2017-Nov-19 15:56N 43°56' W 001°26'1 1.7
2017-Nov-19 15:30N 43°55' W 001°25'1 2.1
2017-Nov-19 15:00N 43°56' W 001°24'4 7.6
2017-Nov-19 14:28N 44°00' W 001°23'4 9.2
2017-Nov-19 14:00N 44°05' W 001°23'5 9.4
2017-Nov-19 13:31N 44°09' W 001°21'5 9.3
2017-Nov-19 13:01N 44°14' W 001°20'5 9.4
2017-Nov-19 12:31N 44°18' W 001°20'5 9.6
2017-Nov-19 12:00N 44°23' W 001°20'5 9.5
2017-Nov-19 11:27N 44°29' W 001°20'4 9.6
2017-Nov-19 11:00N 44°33' W 001°21'5 9.5
2017-Nov-19 10:31N 44°38' W 001°21'5 9.4
2017-Nov-19 10:00N 44°42' W 001°21'93 9.6
2017-Nov-19 00:19N 46°13' W 001°47'3 9.8
2017-Nov-19 00:00N 46°16' W 001°50'5 9.8
2017-Nov-18 23:28N 46°20' W 001°55'5 9.8
2017-Nov-18 23:00N 46°23' W 001°59'5 9.7
2017-Nov-18 22:30N 46°26' W 002°04'7010.2
2017-Nov-18 15:36N 47°23' W 003°06'211.5
2017-Nov-18 15:28N 47°24' W 003°07'511.4
2017-Nov-18 15:00N 47°28' W 003°12'611.3
2017-Nov-18 14:30N 47°33' W 003°16'611.1
2017-Nov-18 14:00N 47°38' W 003°20'510.2
2017-Nov-18 13:30N 47°43' W 003°22'1 1.7
2017-Nov-18 13:00N 47°44' W 003°22'0 0.0
2017-Nov-18 12:30N 47°44' W 003°22'0 0.1
2017-Nov-18 12:00N 47°44' W 003°22'  
2017-Nov-12 23:32N 47°44' W 003°22'0 0.0
2017-Nov-12 23:30N 47°44' W 003°22'4 7.6
2017-Nov-12 23:00N 47°41' W 003°25'910.6
2017-Nov-12 22:10N 47°43' W 003°38'0 1.5
2017-Nov-12 21:59N 47°43' W 003°38'4 9.4
2017-Nov-12 21:30N 47°42' W 003°31'4 8.0
2017-Nov-12 21:00N 47°40' W 003°26'2 4.2
2017-Nov-12 20:30N 47°39' W 003°23'2 4.6
2017-Nov-12 20:00N 47°40' W 003°27'2 3.4
2017-Nov-12 19:30N 47°40' W 003°24'510.2
2017-Nov-12 19:00N 47°39' W 003°17'1 2.2
2017-Nov-12 18:30N 47°38' W 003°16'3 5.1
2017-Nov-12 18:00N 47°39' W 003°20'2 3.6
2017-Nov-12 17:30N 47°39' W 003°17'4 7.7
2017-Nov-12 17:00N 47°38' W 003°23'5 9.3
2017-Nov-12 16:30N 47°41' W 003°28'4 8.5
2017-Nov-12 16:00N 47°42' W 003°22'2 3.6
2017-Nov-12 15:30N 47°44' W 003°22'  
Track history (hours):
 
Tides and Currents Weather Stations Pressure Air Temp Water Temp Dewpoint Dewpoint Depression Visibility Wind Speed Wind Dir Waves Ship Positions

F/V Jimorhan

Last reported at 2017-Nov-20 00:21 UTC. Time now 2017-Nov-21 17:44 UTC.
Position N 43°23' W 001°40'.

Length 19 m.

Type: Fishing. MMSI: 227573440.

Date/timePositionNaut miles runAvg speedWind from/ knotsBaromVisibWave heightAir tempDewpointWater temp
2017-Nov-20 00:21N 43°23' W 001°40'2 4.4
2017-Nov-20 00:00N 43°25' W 001°40'510.2
2017-Nov-19 23:30N 43°29' W 001°37'1510.0
2017-Nov-19 21:59N 43°43' W 001°27'3 5.4
2017-Nov-19 21:25N 43°46' W 001°26'0 0.1
2017-Nov-19 20:55N 43°46' W 001°26'5 6.1
2017-Nov-19 20:11N 43°50' W 001°26'0 1.1
2017-Nov-19 19:43N 43°51' W 001°25'1 6.1
2017-Nov-19 19:30N 43°52' W 001°25'2 3.1
2017-Nov-19 19:00N 43°53' W 001°25'1 1.0
2017-Nov-19 18:16N 43°54' W 001°25'1 0.4
2017-Nov-19 16:51N 43°55' W 001°25'0 0.8
2017-Nov-19 16:30N 43°55' W 001°25'1 1.6
2017-Nov-19 15:56N 43°56' W 001°26'1 1.7
2017-Nov-19 15:30N 43°55' W 001°25'1 2.1
2017-Nov-19 15:00N 43°56' W 001°24'4 7.6
2017-Nov-19 14:28N 44°00' W 001°23'4 9.2
2017-Nov-19 14:00N 44°05' W 001°23'5 9.4
2017-Nov-19 13:31N 44°09' W 001°21'5 9.3
2017-Nov-19 13:01N 44°14' W 001°20'5 9.4
2017-Nov-19 12:31N 44°18' W 001°20'5 9.6
2017-Nov-19 12:00N 44°23' W 001°20'5 9.5
2017-Nov-19 11:27N 44°29' W 001°20'4 9.6
2017-Nov-19 11:00N 44°33' W 001°21'5 9.5
2017-Nov-19 10:31N 44°38' W 001°21'5 9.4
2017-Nov-19 10:00N 44°42' W 001°21'93 9.6
2017-Nov-19 00:19N 46°13' W 001°47'3 9.8
2017-Nov-19 00:00N 46°16' W 001°50'5 9.8
2017-Nov-18 23:28N 46°20' W 001°55'5 9.8
2017-Nov-18 23:00N 46°23' W 001°59'5 9.7
2017-Nov-18 22:30N 46°26' W 002°04'7010.2
2017-Nov-18 15:36N 47°23' W 003°06'211.5
2017-Nov-18 15:28N 47°24' W 003°07'511.4
2017-Nov-18 15:00N 47°28' W 003°12'611.3
2017-Nov-18 14:30N 47°33' W 003°16'611.1
2017-Nov-18 14:00N 47°38' W 003°20'510.2
2017-Nov-18 13:30N 47°43' W 003°22'1 1.7
2017-Nov-18 13:00N 47°44' W 003°22'0 0.0
2017-Nov-18 12:30N 47°44' W 003°22'0 0.1
2017-Nov-18 12:00N 47°44' W 003°22'  
2017-Nov-12 23:32N 47°44' W 003°22'0 0.0
2017-Nov-12 23:30N 47°44' W 003°22'4 7.6
2017-Nov-12 23:00N 47°41' W 003°25'910.6
2017-Nov-12 22:10N 47°43' W 003°38'0 1.5
2017-Nov-12 21:59N 47°43' W 003°38'4 9.4
2017-Nov-12 21:30N 47°42' W 003°31'4 8.0
2017-Nov-12 21:00N 47°40' W 003°26'2 4.2
2017-Nov-12 20:30N 47°39' W 003°23'2 4.6
2017-Nov-12 20:00N 47°40' W 003°27'2 3.4
2017-Nov-12 19:30N 47°40' W 003°24'510.2
2017-Nov-12 19:00N 47°39' W 003°17'1 2.2
2017-Nov-12 18:30N 47°38' W 003°16'3 5.1
2017-Nov-12 18:00N 47°39' W 003°20'2 3.6
2017-Nov-12 17:30N 47°39' W 003°17'4 7.7
2017-Nov-12 17:00N 47°38' W 003°23'5 9.3
2017-Nov-12 16:30N 47°41' W 003°28'4 8.5
2017-Nov-12 16:00N 47°42' W 003°22'2 3.6
2017-Nov-12 15:30N 47°44' W 003°22'  

Dump ship's entire track history